Time;durP1;ratioP1;P1;durP2;ratioP2;P2;SDS_P1;SDS_P2;PMS_P1;PMS_P2;Temp;Humidity;BMP_temperature;BMP_pressure;BME280_temperature;BME280_humidity;BME280_pressure;Samples;Min_cycle;Max_cycle;Signal;HPM_P1;HPM_P2
2022/06/13 00:07:09;;;;;;;10.50;8.25;;;13.70;99.90;;;;;;20985138;28;20772;-58
2022/06/13 00:17:11;;;;;;;14.60;9.27;;;13.70;99.90;;;;;;20984415;28;20555;-58
2022/06/13 00:27:15;;;;;;;14.27;11.07;;;13.60;99.90;;;;;;20983908;28;20056;-58
2022/06/13 00:37:17;;;;;;;13.07;9.23;;;13.40;99.90;;;;;;21033558;28;20036;-58
2022/06/13 00:47:19;;;;;;;10.38;8.18;;;13.30;99.90;;;;;;21049757;28;20067;-59
2022/06/13 00:57:27;;;;;;;13.38;9.85;;;13.30;99.90;;;;;;21032557;28;20048;-58
2022/06/13 01:07:30;;;;;;;14.20;9.30;;;13.30;99.90;;;;;;21065286;28;20048;-58
2022/06/13 01:17:33;;;;;;;12.75;9.75;;;13.30;99.90;;;;;;21065099;28;20093;-57
2022/06/13 01:27:50;;;;;;;12.57;9.30;;;13.30;99.90;;;;;;21064453;28;20109;-58
2022/06/13 01:37:58;;;;;;;14.45;10.27;;;13.20;99.90;;;;;;20996675;28;20403;-49
2022/06/13 01:48:26;;;;;;;15.70;11.68;;;13.20;99.90;;;;;;20995842;28;20094;-58
2022/06/13 01:59:01;;;;;;;13.25;9.60;;;13.20;99.90;;;;;;20995539;28;20028;-58
2022/06/13 02:09:10;;;;;;;10.52;6.72;;;13.30;99.90;;;;;;20722357;28;20096;-59
2022/06/13 02:19:32;;;;;;;9.75;6.03;;;13.70;99.90;;;;;;20721731;28;20420;-58
2022/06/13 02:29:42;;;;;;;7.13;5.07;;;14.20;99.90;;;;;;20575789;28;20059;-58
2022/06/13 02:39:53;;;;;;;;;;;14.50;99.90;;;;;;20701666;28;20067;-58
2022/06/13 02:50:08;;;;;;;6.28;4.43;;;14.70;99.90;;;;;;20883145;28;19958;-58
2022/06/13 03:00:20;;;;;;;6.50;4.80;;;14.60;99.90;;;;;;20882577;28;20045;-58
2022/06/13 03:10:35;;;;;;;4.60;3.42;;;14.50;99.90;;;;;;20981973;28;20105;-58
2022/06/13 03:20:47;;;;;;;5.45;4.22;;;14.20;99.90;;;;;;21055688;28;20032;-58
2022/06/13 03:31:06;;;;;;;6.32;3.63;;;14.00;99.90;;;;;;21040145;28;20087;-58
2022/06/13 03:41:15;;;;;;;2.85;2.28;;;14.10;99.90;;;;;;20987270;28;20557;-52
2022/06/13 03:51:23;;;;;;;3.38;1.50;;;14.10;99.90;;;;;;20988050;28;20063;-58
2022/06/13 04:01:38;;;;;;;2.35;1.00;;;14.00;99.90;;;;;;20985545;28;20032;-58
2022/06/13 04:11:55;;;;;;;0.88;0.68;;;14.30;99.90;;;;;;20985019;28;20037;-58
2022/06/13 04:22:05;;;;;;;2.20;0.77;;;15.10;99.90;;;;;;20983843;28;20046;-58
2022/06/13 04:32:13;;;;;;;1.10;0.90;;;15.20;99.90;;;;;;21009857;28;20040;-58
2022/06/13 04:42:18;;;;;;;1.90;1.30;;;15.40;99.90;;;;;;21049052;28;20350;-58
2022/06/13 04:52:26;;;;;;;2.13;0.90;;;15.30;99.90;;;;;;21049599;28;20035;-58
2022/06/13 05:02:42;;;;;;;1.17;1.08;;;15.50;99.90;;;;;;21049537;28;20044;-49
2022/06/13 05:12:45;;;;;;;3.38;0.90;;;;;;;;;;21048665;28;20036;-51
2022/06/13 05:23:19;;;;;;;2.88;1.13;;;16.10;99.90;;;;;;21048879;28;20105;-58
2022/06/13 05:33:35;;;;;;;2.58;1.58;;;16.00;99.90;;;;;;21011591;28;20040;-58
2022/06/13 05:43:38;;;;;;;3.85;2.15;;;15.70;99.90;;;;;;20981342;28;20040;-58
2022/06/13 05:53:40;;;;;;;1.40;1.17;;;15.80;99.90;;;;;;20996157;28;20066;-58
2022/06/13 06:03:47;;;;;;;1.30;1.20;;;15.80;99.90;;;;;;20995486;28;20543;-51
2022/06/13 06:13:49;;;;;;;1.58;1.25;;;15.90;99.90;;;;;;20994726;28;20502;-59
2022/06/13 06:23:52;;;;;;;2.22;1.15;;;17.90;99.20;;;;;;20993560;28;20052;-53
2022/06/13 06:33:54;;;;;;;1.13;1.02;;;19.00;96.40;;;;;;21033971;28;20040;-59
2022/06/13 06:43:57;;;;;;;2.25;1.10;;;21.70;93.20;;;;;;21059179;28;20032;-59
2022/06/13 07:04:21;;;;;;;1.30;1.10;;;26.80;78.10;;;;;;21056683;28;20036;-62
2022/06/13 07:14:30;;;;;;;1.50;1.40;;;29.10;72.70;;;;;;21056526;28;20453;-57
2022/06/13 07:24:34;;;;;;;1.50;1.40;;;29.70;72.20;;;;;;21055441;28;20052;-62
2022/06/13 07:34:39;;;;;;;2.33;2.10;;;30.30;69.40;;;;;;21007993;28;20032;-58
2022/06/13 07:44:41;;;;;;;3.35;2.25;;;30.50;66.50;;;;;;20987149;28;20028;-62
2022/06/13 07:54:44;;;;;;;2.33;1.90;;;30.40;62.90;;;;;;20986159;28;20044;-63
2022/06/13 08:04:47;;;;;;;2.00;1.80;;;30.10;66.40;;;;;;20985827;28;20098;-64
2022/06/13 08:14:50;;;;;;;2.07;1.87;;;29.70;66.20;;;;;;20984713;28;20090;-62
2022/06/13 08:24:52;;;;;;;2.10;1.90;;;29.80;67.90;;;;;;20984301;28;20098;-64
2022/06/13 08:34:55;;;;;;;3.22;2.00;;;29.30;78.80;;;;;;21033358;28;20040;-62
2022/06/13 08:45:07;;;;;;;1.70;1.60;;;28.50;68.30;;;;;;21050623;28;20093;-63
2022/06/13 08:55:20;;;;;;;5.72;1.85;;;28.40;71.20;;;;;;21049586;28;20036;-57
2022/06/13 09:05:33;;;;;;;2.73;1.80;;;28.20;72.30;;;;;;21049773;28;20040;-62
2022/06/13 09:15:55;;;;;;;3.55;1.98;;;28.20;71.90;;;;;;21049434;28;20390;-62
2022/06/13 09:26:20;;;;;;;1.80;1.35;;;27.90;75.50;;;;;;21060173;28;20125;-63
2022/06/13 09:36:34;;;;;;;6.70;1.75;;;28.00;74.50;;;;;;21003055;28;20037;-63
2022/06/13 09:46:41;;;;;;;1.85;1.75;;;28.00;76.30;;;;;;20997820;28;20090;-57
2022/06/13 09:57:09;;;;;;;1.92;1.77;;;28.40;78.40;;;;;;20996599;28;20044;-63
2022/06/13 10:07:23;;;;;;;1.90;1.70;;;28.30;75.90;;;;;;20995537;28;20055;-65
2022/06/13 10:17:58;;;;;;;6.28;2.50;;;28.10;76.60;;;;;;20994720;28;20028;-63
2022/06/13 10:28:25;;;;;;;4.37;1.97;;;28.70;79.30;;;;;;20993411;28;20102;-63
2022/06/13 10:39:00;;;;;;;3.83;1.98;;;29.00;77.50;;;;;;21041341;28;20070;-64
2022/06/13 10:49:49;;;;;;;3.80;2.78;;;29.60;78.70;;;;;;21058713;28;20040;-62
2022/06/13 11:00:10;;;;;;;4.78;2.55;;;28.60;76.10;;;;;;21063610;28;20044;-61
2022/06/13 11:10:33;;;;;;;2.75;2.40;;;26.70;81.40;;;;;;21057201;28;20040;-61
2022/06/13 11:31:21;;;;;;;3.80;3.22;;;25.80;86.10;;;;;;21037641;28;20048;-60
2022/06/13 11:41:35;;;;;;;6.18;4.00;;;25.30;86.70;;;;;;20987474;28;20576;-63
2022/06/13 11:51:47;;;;;;;4.95;4.40;;;25.90;86.30;;;;;;20986336;28;20094;-63
2022/06/13 12:01:56;;;;;;;3.28;2.97;;;26.90;79.60;;;;;;20894655;28;20100;-63
2022/06/13 12:12:05;;;;;;;5.13;4.03;;;26.70;85.70;;;;;;20877275;28;20404;-63
2022/06/13 12:22:30;;;;;;;3.35;3.08;;;27.40;82.60;;;;;;20876503;28;20041;-58
2022/06/13 12:33:00;;;;;;;4.88;2.55;;;28.30;79.90;;;;;;20875727;28;20071;-64
2022/06/13 12:43:20;;;;;;;3.00;2.70;;;27.90;84.00;;;;;;20999066;28;20482;-63
2022/06/13 12:53:35;;;;;;;4.10;3.45;;;28.20;85.90;;;;;;21051091;28;20403;-63
2022/06/13 13:03:50;;;;;;;5.93;3.50;;;28.40;79.40;;;;;;21016152;28;20487;-60
2022/06/13 13:14:32;;;;;;;3.60;3.10;;;26.20;82.30;;;;;;21048760;28;20032;-62
2022/06/13 13:24:51;;;;;;;3.95;3.17;;;24.30;87.30;;;;;;21048066;28;20101;-60
2022/06/13 13:35:31;;;;;;;4.33;3.37;;;23.10;88.80;;;;;;20983533;28;20044;-60
2022/06/13 13:45:43;;;;;;;4.35;3.72;;;22.00;90.40;;;;;;20981206;28;20036;-59
2022/06/13 13:56:14;;;;;;;5.95;3.60;;;21.60;93.30;;;;;;20980823;28;20486;-59
2022/06/13 14:06:23;;;;;;;3.80;3.50;;;21.20;93.80;;;;;;20982283;28;20033;-60
2022/06/13 14:16:25;;;;;;;5.47;4.15;;;20.70;95.50;;;;;;20994584;28;20040;-59
2022/06/13 14:26:36;;;;;;;6.47;3.90;;;20.00;95.20;;;;;;20993968;28;20455;-53
2022/06/13 14:36:48;;;;;;;9.48;5.47;;;19.30;97.20;;;;;;21056133;28;20036;-59
2022/06/13 14:47:09;;;;;;;6.13;4.72;;;18.90;99.70;;;;;;21058473;28;20028;-52
2022/06/13 14:57:35;;;;;;;4.07;3.67;;;19.10;99.20;;;;;;21041374;28;20040;-59
2022/06/13 15:07:43;;;;;;;4.20;3.70;;;19.50;99.70;;;;;;20717934;28;20112;-60
2022/06/13 15:17:46;;;;;;;5.00;4.07;;;19.80;98.80;;;;;;20716939;28;20594;-59
2022/06/13 15:27:58;;;;;;;4.60;4.10;;;20.00;99.00;;;;;;20716728;28;20046;-52
2022/06/13 15:38:00;;;;;;;4.80;4.15;;;20.40;98.90;;;;;;20778834;28;20048;-59
2022/06/13 15:48:06;;;;;;;5.15;4.65;;;20.90;97.50;;;;;;20970531;28;20512;-60
2022/06/13 15:58:22;;;;;;;4.53;3.67;;;21.10;98.40;;;;;;20969523;28;20040;-59
2022/06/13 16:08:29;;;;;;;4.35;3.90;;;21.40;98.30;;;;;;20968664;28;20036;-59
2022/06/13 16:18:37;;;;;;;7.00;4.20;;;21.50;98.00;;;;;;20967958;28;20165;-61
2022/06/13 16:28:42;;;;;;;7.07;4.82;;;21.60;97.90;;;;;;20967662;28;20414;-53
2022/06/13 16:38:52;;;;;;;5.05;4.55;;;22.00;94.70;;;;;;21047848;28;20036;-59
2022/06/13 16:49:01;;;;;;;6.35;5.25;;;22.10;94.90;;;;;;21050060;28;20032;-61
2022/06/13 16:59:06;;;;;;;5.05;4.55;;;21.80;94.40;;;;;;21050629;28;20482;-53
2022/06/13 17:09:19;;;;;;;7.10;5.63;;;21.40;95.00;;;;;;21048837;28;20036;-59
2022/06/13 17:19:22;;;;;;;5.15;4.65;;;21.00;96.10;;;;;;21048851;28;20036;-59
2022/06/13 17:39:47;;;;;;;11.20;4.82;;;19.80;98.40;;;;;;20872649;28;20061;-59
2022/06/13 17:49:49;;;;;;;5.35;4.40;;;18.90;99.90;;;;;;20887872;28;20037;-59
2022/06/13 17:59:52;;;;;;;7.65;3.90;;;18.10;99.90;;;;;;20887609;28;20045;-59
2022/06/13 18:09:56;;;;;;;4.28;2.50;;;17.30;99.90;;;;;;20937502;28;20498;-59
2022/06/13 18:20:01;;;;;;;2.30;2.05;;;16.40;99.90;;;;;;20994177;28;20099;-58
2022/06/13 18:30:06;;;;;;;2.20;1.30;;;16.30;99.90;;;;;;21001911;28;20048;-58
2022/06/13 18:40:12;;;;;;;5.65;1.70;;;16.10;99.90;;;;;;21059608;28;20036;-58
2022/06/13 18:50:19;;;;;;;1.35;0.60;;;16.00;99.90;;;;;;21058772;28;20105;-58
2022/06/13 19:00:24;;;;;;;0.90;0.60;;;15.80;99.90;;;;;;21056731;28;20040;-48
2022/06/13 19:10:31;;;;;;;0.88;0.63;;;15.70;99.90;;;;;;21057999;28;20036;-58
2022/06/13 19:20:34;;;;;;;2.55;0.80;;;15.30;99.90;;;;;;21056528;28;20040;-58
2022/06/13 19:30:39;;;;;;;1.95;1.10;;;15.00;99.90;;;;;;21042279;28;20483;-58
2022/06/13 19:40:47;;;;;;;1.45;1.35;;;14.90;99.90;;;;;;20971771;28;20045;-58
2022/06/13 19:50:49;;;;;;;1.65;1.13;;;14.80;99.90;;;;;;20987688;28;20032;-50
2022/06/13 20:00:52;;;;;;;1.67;1.20;;;14.50;99.90;;;;;;20878806;28;20099;-53
2022/06/13 20:10:57;;;;;;;1.70;1.33;;;14.40;99.90;;;;;;20893930;28;20045;-58
2022/06/13 20:21:00;;;;;;;2.05;1.50;;;14.40;99.90;;;;;;20860803;28;20045;-49
2022/06/13 20:31:06;;;;;;;2.90;2.40;;;14.40;99.90;;;;;;20892568;28;20040;-58
2022/06/13 20:41:10;;;;;;;5.00;3.45;;;14.30;99.90;;;;;;20984523;28;20494;-57
2022/06/13 20:51:13;;;;;;;4.30;3.30;;;14.20;99.90;;;;;;21049697;28;20044;-58
2022/06/13 21:01:22;;;;;;;3.95;3.28;;;14.10;99.90;;;;;;21067582;28;20028;-58
2022/06/13 21:11:24;;;;;;;2.35;2.15;;;14.00;99.90;;;;;;21048919;28;20036;-58
2022/06/13 21:21:31;;;;;;;1.92;1.55;;;14.10;99.90;;;;;;21059396;28;20384;-55
2022/06/13 21:31:34;;;;;;;2.03;1.42;;;13.90;99.90;;;;;;21043736;28;20451;-57
2022/06/13 21:41:40;;;;;;;1.70;1.10;;;13.90;99.90;;;;;;20997325;28;20097;-57
2022/06/13 21:51:43;;;;;;;2.05;1.30;;;13.80;99.90;;;;;;20996301;28;20028;-50
2022/06/13 22:01:46;;;;;;;3.05;1.23;;;13.90;99.90;;;;;;20995626;28;20048;-58
2022/06/13 22:11:49;;;;;;;2.00;1.13;;;13.90;99.90;;;;;;20994668;28;20058;-58
2022/06/13 22:21:51;;;;;;;3.05;1.02;;;14.00;99.90;;;;;;20993954;28;20446;-58
2022/06/13 22:31:53;;;;;;;1.23;0.98;;;13.90;99.90;;;;;;21017313;28;20031;-58
2022/06/13 22:41:56;;;;;;;1.98;1.38;;;14.10;99.90;;;;;;21059745;28;20040;-49
2022/06/13 22:52:02;;;;;;;1.48;1.13;;;14.10;99.90;;;;;;21017504;28;20398;-58
2022/06/13 23:02:07;;;;;;;3.13;1.23;;;14.00;99.90;;;;;;20989589;28;20032;-48
2022/06/13 23:12:10;;;;;;;2.72;0.85;;;13.80;99.90;;;;;;20974616;28;20040;-58
2022/06/13 23:22:12;;;;;;;1.30;0.98;;;13.90;99.90;;;;;;20972948;28;20403;-50
2022/06/13 23:32:15;;;;;;;0.95;0.82;;;14.00;99.90;;;;;;20982028;28;20072;-51
2022/06/13 23:42:17;;;;;;;1.00;0.88;;;14.00;99.90;;;;;;21054119;28;20413;-58
2022/06/13 23:52:20;;;;;;;1.27;0.98;;;13.80;99.90;;;;;;21054202;28;20036;-58
